Time;durP1;ratioP1;P1;durP2;ratioP2;P2;SDS_P1;SDS_P2;PMS_P1;PMS_P2;Temp;Humidity;BMP_temperature;BMP_pressure;BME280_temperature;BME280_humidity;BME280_pressure;Samples;Min_cycle;Max_cycle;Signal;HPM_P1;HPM_P2
2022/12/15 00:40:14;;;;;;;204.05;92.97;;;;;;;-9.08;73.31;100293.27;1786635;79;21074;-83
2022/12/15 00:43:23;;;;;;;205.15;97.72;;;;;;;-9.14;73.19;100296.14;1795268;79;20959;-95
2022/12/15 00:48:35;;;;;;;205.52;95.55;;;;;;;-9.27;73.21;100274.95;1785518;79;21487;-88
2022/12/15 00:51:02;;;;;;;217.15;99.87;;;;;;;-9.32;73.17;100284.19;1792186;78;21018;-86
2022/12/15 01:21:08;;;;;;;219.28;99.52;;;;;;;-9.42;72.90;100280.75;1785195;79;22114;-87
2022/12/15 01:23:35;;;;;;;227.87;102.02;;;;;;;-9.40;72.97;100274.15;1790736;79;21032;-83
2022/12/15 01:26:01;;;;;;;232.27;105.75;;;;;;;-9.39;72.92;100282.69;1788097;79;22933;-86
2022/12/15 01:28:28;;;;;;;251.35;108.20;;;;;;;-9.37;72.93;100285.38;1788494;79;21056;-82
2022/12/15 01:30:55;;;;;;;240.45;105.45;;;;;;;-9.39;72.78;100277.59;1786134;79;21082;-82
2022/12/15 01:33:22;;;;;;;260.75;108.75;;;;;;;-9.44;72.75;100276.23;1792115;79;21066;-86
2022/12/15 01:35:57;;;;;;;262.12;112.60;;;;;;;-9.47;72.70;100279.41;1789850;79;21098;-86
2022/12/15 01:38:24;;;;;;;262.23;110.75;;;;;;;-9.53;72.67;100274.08;1786082;79;21828;-83
2022/12/15 01:41:01;;;;;;;252.65;106.97;;;;;;;-9.50;72.87;100279.09;1786647;79;21285;-86
2022/12/15 01:43:34;;;;;;;240.80;104.07;;;;;;;-9.49;72.75;100289.83;1771754;79;21081;-86
2022/12/15 01:46:06;;;;;;;229.30;104.65;;;;;;;-9.49;72.84;100290.21;1790472;79;21074;-82
2022/12/15 01:48:47;;;;;;;224.75;102.82;;;;;;;-9.48;72.89;100289.06;1797570;79;21013;-83
2022/12/15 01:51:31;;;;;;;505.03;164.77;;;;;;;-9.45;72.89;100291.02;1784314;79;21703;-83
2022/12/15 01:54:11;;;;;;;406.95;146.87;;;;;;;-9.48;72.73;100284.34;1790764;78;21114;-86
2022/12/15 01:56:43;;;;;;;323.07;124.20;;;;;;;-9.51;72.64;100290.45;1795352;78;21069;-86
2022/12/15 01:59:14;;;;;;;429.07;153.23;;;;;;;-9.56;72.47;100287.82;1793403;78;21115;-86
2022/12/15 02:01:40;;;;;;;377.87;137.25;;;;;;;-9.62;72.49;100289.02;1797773;78;21042;-87
2022/12/15 02:04:08;;;;;;;309.65;123.53;;;;;;;-9.61;72.64;100283.19;1791308;78;21771;-87
2022/12/15 02:06:35;;;;;;;286.98;120.53;;;;;;;-9.62;72.46;100287.74;1805576;78;21992;-82
2022/12/15 02:09:01;;;;;;;262.32;110.85;;;;;;;-9.64;72.51;100284.53;1802423;78;21038;-83
2022/12/15 02:11:48;;;;;;;294.50;120.55;;;;;;;-9.67;72.46;100285.50;1793038;78;21463;-83
2022/12/15 02:14:48;;;;;;;265.52;112.17;;;;;;;-9.69;72.48;100278.09;1798208;78;21061;-86
2022/12/15 02:17:53;;;;;;;251.40;104.72;;;;;;;-9.73;72.30;100274.34;1797845;78;21757;-86
2022/12/15 02:20:42;;;;;;;219.43;99.50;;;;;;;-9.78;72.30;100280.28;1775310;80;21126;-85
2022/12/15 02:23:35;;;;;;;246.50;103.55;;;;;;;-9.80;72.40;100278.31;1778648;80;21983;-82
2022/12/15 02:26:30;;;;;;;266.48;93.25;;;;;;;-9.79;72.47;100273.38;1794787;78;21050;-81
2022/12/15 02:29:14;;;;;;;201.40;89.95;;;;;;;-9.77;72.56;100269.71;1785165;78;21096;-82
2022/12/15 02:31:48;;;;;;;183.32;85.83;;;;;;;-9.74;72.64;100281.48;1792792;78;21713;-83
2022/12/15 02:34:23;;;;;;;173.85;82.70;;;;;;;-9.71;72.62;100282.14;1789157;78;21077;-86
2022/12/15 02:36:57;;;;;;;186.30;84.87;;;;;;;-9.67;72.66;100282.95;1801027;78;21977;-81
2022/12/15 02:39:24;;;;;;;179.07;83.92;;;;;;;-9.70;72.51;100289.94;1789277;78;21467;-82
2022/12/15 02:41:51;;;;;;;278.90;108.35;;;;;;;-9.69;72.52;100291.72;1798046;78;21648;-82
2022/12/15 02:44:51;;;;;;;461.08;161.77;;;;;;;-9.74;72.37;100293.29;1788979;78;21802;-82
2022/12/15 02:47:36;;;;;;;270.23;103.65;;;;;;;-9.75;72.49;100289.86;1794972;78;21481;-82
2022/12/15 02:50:28;;;;;;;251.47;103.62;;;;;;;-9.73;72.43;100281.09;1796584;78;21042;-82
2022/12/15 02:53:21;;;;;;;174.65;81.30;;;;;;;-9.75;72.48;100281.33;1793651;78;21623;-86
2022/12/15 02:56:11;;;;;;;191.10;89.85;;;;;;;-9.70;72.61;100281.02;1792245;78;21047;-86
2022/12/15 02:59:12;;;;;;;207.95;95.47;;;;;;;-9.68;72.59;100274.42;1788518;78;21769;-83
2022/12/15 03:01:56;;;;;;;174.47;82.72;;;;;;;-9.72;72.41;100282.52;1795372;78;21036;-83
2022/12/15 03:04:22;;;;;;;;;;;;;;;-9.71;72.59;100283.41;1804525;78;21043;-83
2022/12/15 03:06:59;;;;;;;171.82;84.62;;;;;;;-9.69;72.58;100280.64;1790055;78;20519;-86
2022/12/15 03:09:26;;;;;;;169.17;80.42;;;;;;;-9.68;72.40;100282.06;1783744;78;21106;-84
2022/12/15 03:11:53;;;;;;;299.62;131.72;;;;;;;-9.71;72.43;100278.31;1789899;78;21758;-84
2022/12/15 03:14:20;;;;;;;362.65;152.30;;;;;;;-9.73;72.29;100285.80;1800809;78;21093;-84
2022/12/15 03:16:46;;;;;;;280.00;114.00;;;;;;;-9.74;72.35;100283.10;1795824;78;21062;-82
2022/12/15 03:19:13;;;;;;;245.15;105.00;;;;;;;-9.76;72.20;100288.05;1791480;78;21544;-82
2022/12/15 03:21:44;;;;;;;226.77;98.72;;;;;;;-9.80;72.18;100279.59;1787529;78;21075;-85
2022/12/15 03:24:11;;;;;;;212.97;94.52;;;;;;;-9.83;72.09;100274.22;1803517;78;21718;-86
2022/12/15 03:26:39;;;;;;;246.50;102.82;;;;;;;-9.86;72.11;100277.34;1788442;78;21206;-87
2022/12/15 03:29:06;;;;;;;254.70;100.72;;;;;;;-9.84;72.23;100276.23;1788752;78;21023;-82
2022/12/15 03:31:33;;;;;;;179.75;82.08;;;;;;;-9.85;72.19;100275.72;1792332;78;21473;-83
2022/12/15 03:34:03;;;;;;;175.57;84.55;;;;;;;-9.84;72.28;100271.13;1789368;78;21413;-83
2022/12/15 03:36:29;;;;;;;169.28;81.35;;;;;;;-9.84;72.20;100278.39;1790718;78;21751;-87
2022/12/15 03:38:56;;;;;;;161.97;80.10;;;;;;;-9.82;72.19;100274.72;1797148;78;21389;-83
2022/12/15 03:41:24;;;;;;;180.00;89.00;;;;;;;-9.81;72.09;100272.72;1788926;78;21575;-87
2022/12/15 03:43:51;;;;;;;216.27;107.25;;;;;;;-9.82;72.01;100283.25;1790589;78;21039;-87
2022/12/15 03:46:17;;;;;;;181.32;88.97;;;;;;;-9.86;71.83;100286.64;1798987;78;21460;-87
2022/12/15 03:48:45;;;;;;;172.37;80.70;;;;;;;-9.87;71.94;100287.02;1793714;78;21722;-87
2022/12/15 03:51:12;;;;;;;171.28;83.00;;;;;;;-9.86;71.96;100282.81;1793305;78;21108;-82
2022/12/15 03:53:39;;;;;;;178.93;85.38;;;;;;;-9.86;71.88;100282.44;1792356;79;21050;-83
2022/12/15 03:56:09;;;;;;;187.27;90.30;;;;;;;-9.88;71.75;100282.66;1785098;79;21066;-86
2022/12/15 03:58:37;;;;;;;204.15;94.20;;;;;;;-9.89;71.76;100282.51;1786687;79;21038;-86
2022/12/15 04:01:14;;;;;;;185.52;89.50;;;;;;;-9.91;71.71;100284.01;1789259;79;21749;-87
2022/12/15 04:03:41;;;;;;;173.55;80.77;;;;;;;-9.95;71.60;100284.46;1785600;79;21168;-83
2022/12/15 04:06:07;;;;;;;163.30;80.15;;;;;;;-10.00;71.55;100286.58;1784627;79;21132;-83
2022/12/15 04:08:34;;;;;;;166.55;83.65;;;;;;;-10.06;71.65;100279.23;1788771;79;21138;-83
2022/12/15 04:11:01;;;;;;;145.57;74.30;;;;;;;-10.06;71.70;100288.49;1784582;79;21118;-83
2022/12/15 04:13:28;;;;;;;152.68;75.57;;;;;;;-10.10;71.75;100277.11;1786182;79;21742;-84
2022/12/15 04:15:55;;;;;;;153.72;75.85;;;;;;;-10.14;71.79;100280.48;1783924;79;21031;-86
2022/12/15 04:18:21;;;;;;;153.55;76.10;;;;;;;-10.18;71.82;100282.72;1781128;79;21040;-86
2022/12/15 04:20:48;;;;;;;160.50;75.72;;;;;;;-10.23;71.77;100285.56;1788641;79;21532;-86
2022/12/15 04:23:15;;;;;;;165.22;75.75;;;;;;;-10.26;71.87;100292.91;1781944;79;21639;-86
2022/12/15 05:32:06;;;;;;;140.55;67.53;;;;;;;-10.46;71.23;100305.83;1782151;80;21532;-93
2022/12/15 05:34:34;;;;;;;141.62;66.85;;;;;;;-10.44;71.28;100306.88;1749468;80;21747;-82
2022/12/15 05:37:01;;;;;;;130.47;63.65;;;;;;;-10.44;71.27;100306.88;1763028;80;21119;-83
2022/12/15 05:39:28;;;;;;;124.60;63.13;;;;;;;-10.43;71.26;100309.97;1772837;80;21096;-83
2022/12/15 05:41:55;;;;;;;155.40;76.28;;;;;;;-10.44;71.23;100317.05;1776575;80;21483;-83
2022/12/15 05:44:23;;;;;;;138.03;65.97;;;;;;;-10.44;71.26;100313.62;1764346;80;21055;-85
2022/12/15 05:46:50;;;;;;;134.47;65.25;;;;;;;-10.44;71.26;100317.44;1776425;80;22422;-81
2022/12/15 05:49:16;;;;;;;139.22;67.15;;;;;;;-10.45;71.24;100321.64;1768514;80;21067;-83
2022/12/15 05:51:45;;;;;;;138.22;64.47;;;;;;;-10.47;71.17;100325.67;1783917;80;22093;-82
2022/12/15 05:54:14;;;;;;;136.20;67.65;;;;;;;-10.48;71.13;100328.95;1762184;81;21701;-87
2022/12/15 05:56:41;;;;;;;136.32;67.08;;;;;;;-10.48;71.18;100333.14;1758776;80;21598;-84
2022/12/15 05:59:08;;;;;;;146.62;69.30;;;;;;;-10.50;71.05;100332.98;1758406;80;23018;-87
2022/12/15 06:01:34;;;;;;;173.40;88.82;;;;;;;-10.53;71.03;100336.86;1759510;80;21062;-85
2022/12/15 06:04:01;;;;;;;196.53;99.35;;;;;;;-10.57;71.01;100339.09;1767180;80;21031;-89
2022/12/15 06:06:28;;;;;;;162.80;80.35;;;;;;;-10.63;70.95;100339.75;1757583;80;21050;-83
2022/12/15 06:08:55;;;;;;;180.48;86.60;;;;;;;-10.64;71.14;100346.87;1761476;79;21081;-86
2022/12/15 06:11:22;;;;;;;152.32;77.15;;;;;;;-10.58;71.52;100345.31;1757334;81;21760;-86
2022/12/15 06:13:49;;;;;;;188.82;89.07;;;;;;;-10.54;71.33;100342.71;1759057;80;21044;-83
2022/12/15 06:16:19;;;;;;;375.98;179.38;;;;;;;-10.56;71.20;100344.71;1762458;80;21055;-85
2022/12/15 06:18:53;;;;;;;363.75;164.52;;;;;;;-10.58;71.13;100352.56;1756850;80;21898;-83
2022/12/15 06:21:22;;;;;;;296.98;129.50;;;;;;;-10.58;71.18;100356.38;1758622;80;21059;-83
2022/12/15 06:23:49;;;;;;;257.12;115.17;;;;;;;-10.57;71.16;100359.44;1765820;80;21683;-83
2022/12/15 06:26:34;;;;;;;204.25;96.92;;;;;;;-10.57;71.04;100365.79;1760587;80;21182;-82
2022/12/15 06:29:07;;;;;;;190.25;91.05;;;;;;;-10.57;71.09;100372.53;1736065;80;20989;-81
2022/12/15 06:31:36;;;;;;;190.77;90.10;;;;;;;-10.53;71.24;100369.55;1759842;81;20994;-81
2022/12/15 06:34:04;;;;;;;157.67;76.77;;;;;;;-10.48;71.19;100375.12;1758062;80;21036;-83
2022/12/15 06:36:31;;;;;;;197.80;95.75;;;;;;;-10.46;71.11;100375.79;1765619;80;21746;-82
2022/12/15 06:38:59;;;;;;;147.37;74.45;;;;;;;-10.51;70.78;100379.88;1755201;81;21266;-89
2022/12/15 06:41:31;;;;;;;156.75;77.03;;;;;;;-10.56;70.72;100390.88;1758514;80;21075;-82
2022/12/15 06:43:58;;;;;;;152.05;75.90;;;;;;;-10.63;70.64;100398.62;1757736;80;21111;-89
2022/12/15 06:46:25;;;;;;;238.80;107.32;;;;;;;-10.68;70.73;100404.48;1755172;80;21951;-89
2022/12/15 06:48:52;;;;;;;175.78;84.45;;;;;;;-10.71;70.65;100407.13;1757543;79;21748;-82
2022/12/15 06:51:18;;;;;;;160.88;78.15;;;;;;;-10.76;70.61;100411.71;1736733;80;21178;-82
2022/12/15 06:53:49;;;;;;;137.03;69.82;;;;;;;-10.79;70.75;100419.02;1780256;79;21055;-81
2022/12/15 06:56:20;;;;;;;131.55;66.95;;;;;;;-10.72;71.06;100423.99;1787991;78;21399;-88
2022/12/15 06:58:48;;;;;;;124.90;64.50;;;;;;;-10.62;71.32;100424.56;1789830;79;21115;-89
2022/12/15 07:01:15;;;;;;;132.05;69.10;;;;;;;-10.54;71.39;100433.91;1790212;79;22967;-83
2022/12/15 07:03:42;;;;;;;142.62;72.35;;;;;;;-10.48;71.36;100440.87;1785920;79;21044;-83
2022/12/15 07:06:11;;;;;;;150.12;73.85;;;;;;;-10.40;71.41;100439.11;1790427;79;20999;-89
2022/12/15 07:08:39;;;;;;;164.00;78.40;;;;;;;-10.35;71.31;100425.61;1793858;79;21049;-89
2022/12/15 07:11:09;;;;;;;182.72;82.15;;;;;;;-10.34;71.13;100433.75;1788441;79;21040;-89
2022/12/15 07:13:36;;;;;;;193.78;88.37;;;;;;;-10.32;71.12;100430.64;1792727;79;21766;-87
2022/12/15 07:16:04;;;;;;;313.73;126.95;;;;;;;-10.29;71.03;100432.55;1791824;79;21105;-86
2022/12/15 07:18:31;;;;;;;327.98;136.68;;;;;;;-10.31;70.82;100434.08;1758074;79;21580;-87
2022/12/15 07:21:06;;;;;;;188.22;86.90;;;;;;;-10.35;70.83;100435.41;1787067;79;21686;-87
2022/12/15 07:23:33;;;;;;;146.50;70.05;;;;;;;-10.36;70.89;100436.13;1791899;78;21041;-81
2022/12/15 07:26:07;;;;;;;150.25;73.60;;;;;;;-10.38;70.82;100443.98;1804758;79;22569;-80
2022/12/15 07:28:35;;;;;;;158.25;75.55;;;;;;;-10.38;70.92;100452.55;1792917;79;21068;-80
2022/12/15 07:31:07;;;;;;;174.85;81.10;;;;;;;-10.28;71.12;100456.00;1787779;79;21085;-80
2022/12/15 07:33:36;;;;;;;174.13;83.70;;;;;;;-10.33;71.03;100435.19;1783229;78;22168;-88
2022/12/15 07:36:05;;;;;;;181.07;82.92;;;;;;;-10.27;70.92;100471.39;1781874;79;21331;-82
2022/12/15 07:38:32;;;;;;;201.82;90.90;;;;;;;-10.23;71.19;100468.80;1771373;79;21815;-81
2022/12/15 07:41:03;;;;;;;226.07;100.85;;;;;;;-10.18;71.12;100470.17;1790888;78;21022;-81
2022/12/15 07:43:30;;;;;;;246.37;107.85;;;;;;;-10.14;71.17;100470.11;1764577;78;21046;-81
2022/12/15 07:45:58;;;;;;;176.22;83.92;;;;;;;-10.09;71.27;100473.66;1794990;79;21066;-88
2022/12/15 07:48:26;;;;;;;145.47;73.72;;;;;;;-10.03;71.24;100469.55;1792770;78;21740;-81
2022/12/15 07:50:56;;;;;;;130.47;71.90;;;;;;;-10.03;71.26;100472.99;1786006;79;22064;-88
2022/12/15 07:53:21;;;;;;;130.72;66.90;;;;;;;-9.98;71.34;100479.84;1788950;79;21104;-88
2022/12/15 07:55:55;;;;;;;124.18;64.82;;;;;;;-9.93;71.34;100477.74;1786926;79;21095;-81
2022/12/15 07:58:21;;;;;;;125.40;63.48;;;;;;;-9.85;71.54;100481.59;1784130;79;21068;-88
2022/12/15 08:00:48;;;;;;;120.90;61.85;;;;;;;-9.73;71.64;100485.74;1795033;79;21097;-82
2022/12/15 08:03:15;;;;;;;123.20;64.70;;;;;;;-9.63;71.69;100487.20;1784982;79;21735;-81
2022/12/15 08:05:42;;;;;;;135.95;68.02;;;;;;;-9.52;71.75;100490.80;1791267;79;21915;-82
2022/12/15 08:08:10;;;;;;;132.80;69.15;;;;;;;-9.41;71.68;100491.49;1781892;79;22046;-81
2022/12/15 08:10:39;;;;;;;149.87;73.90;;;;;;;-9.28;71.70;100491.06;1788299;79;21044;-89
2022/12/15 08:13:06;;;;;;;185.35;81.95;;;;;;;-9.19;71.65;100502.17;1793961;79;21046;-81
2022/12/15 08:15:37;;;;;;;175.72;81.70;;;;;;;-9.11;71.60;100502.03;1786374;78;21794;-89
2022/12/15 08:18:04;;;;;;;156.20;79.45;;;;;;;-9.02;71.58;100511.86;1790459;78;21115;-81
2022/12/15 08:20:31;;;;;;;144.65;72.05;;;;;;;-9.02;71.49;100508.03;1788115;79;21055;-82
2022/12/15 08:22:58;;;;;;;141.82;68.92;;;;;;;-8.97;71.45;100511.95;1789263;79;21054;-81
2022/12/15 08:25:27;;;;;;;129.42;64.40;;;;;;;-8.93;71.44;100508.94;1797295;79;21054;-88
2022/12/15 08:27:55;;;;;;;115.30;60.55;;;;;;;-8.88;71.50;100512.81;1792827;79;21767;-81
2022/12/15 08:30:22;;;;;;;123.72;63.15;;;;;;;-8.84;71.40;100519.11;1790068;79;21045;-88
2022/12/15 08:32:49;;;;;;;123.00;64.30;;;;;;;-8.84;71.31;100517.48;1788043;79;21073;-88
2022/12/15 08:35:15;;;;;;;125.80;65.67;;;;;;;-8.83;71.34;100514.17;1783888;79;21092;-81
2022/12/15 08:37:42;;;;;;;124.65;65.47;;;;;;;-8.80;71.45;100514.86;1784062;79;22217;-82
2022/12/15 08:40:10;;;;;;;126.85;64.90;;;;;;;-8.73;71.52;100519.78;1785142;79;21751;-88
2022/12/15 08:42:38;;;;;;;123.22;64.07;;;;;;;-8.67;71.64;100523.30;1790086;79;21493;-88
2022/12/15 08:45:06;;;;;;;115.97;62.67;;;;;;;-8.62;71.67;100524.66;1785443;79;21488;-81
2022/12/15 08:47:33;;;;;;;116.90;63.38;;;;;;;-8.55;71.78;100523.23;1783781;79;22153;-88
2022/12/15 08:49:59;;;;;;;126.40;65.62;;;;;;;-8.46;71.81;100525.78;1792415;78;21046;-88
2022/12/15 08:52:26;;;;;;;130.67;66.35;;;;;;;-8.44;71.69;100521.33;1797800;78;21650;-88
2022/12/15 08:54:54;;;;;;;121.47;63.92;;;;;;;-8.38;71.76;100530.30;1784258;79;21029;-88
2022/12/15 08:57:22;;;;;;;119.10;62.65;;;;;;;-8.31;71.85;100531.42;1785373;79;21578;-88
2022/12/15 08:59:49;;;;;;;117.67;60.33;;;;;;;-8.24;71.90;100536.33;1788422;79;21557;-87
2022/12/15 09:02:16;;;;;;;121.92;62.05;;;;;;;-8.17;71.91;100535.28;1789197;79;21591;-87
2022/12/15 09:04:44;;;;;;;124.15;64.25;;;;;;;-8.11;72.02;100541.85;1788320;79;21716;-88
2022/12/15 09:07:12;;;;;;;124.58;63.38;;;;;;;-8.01;72.25;100534.33;1743438;78;21042;-88
2022/12/15 09:09:39;;;;;;;119.90;61.90;;;;;;;-7.91;72.19;100539.91;1774626;79;21022;-88
2022/12/15 09:12:06;;;;;;;118.10;62.65;;;;;;;-7.83;72.24;100540.63;1791818;78;21129;-88
2022/12/15 09:14:34;;;;;;;130.63;66.90;;;;;;;-7.75;72.24;100549.94;1793081;79;21137;-88
2022/12/15 09:17:00;;;;;;;123.20;65.85;;;;;;;-7.67;72.42;100548.10;1786142;79;21804;-81
2022/12/15 09:19:27;;;;;;;119.08;64.45;;;;;;;-7.58;72.45;100546.76;1785783;79;21252;-88
2022/12/15 09:21:54;;;;;;;120.08;62.25;;;;;;;-7.52;72.44;100543.13;1782475;79;21056;-81
2022/12/15 09:24:23;;;;;;;127.32;66.15;;;;;;;-7.43;72.56;100537.98;1784828;79;21042;-81
2022/12/15 09:26:50;;;;;;;120.95;62.70;;;;;;;-7.35;72.59;100533.57;1788799;79;21003;-88
2022/12/15 09:29:17;;;;;;;124.20;65.70;;;;;;;-7.23;72.80;100534.68;1779606;79;21740;-81
2022/12/15 09:31:45;;;;;;;118.82;63.13;;;;;;;-7.11;72.88;100534.53;1780232;79;21095;-88
2022/12/15 09:34:15;;;;;;;117.85;62.62;;;;;;;-7.00;72.84;100543.19;1790967;78;21058;-88
2022/12/15 09:36:47;;;;;;;130.67;66.02;;;;;;;-6.93;72.76;100548.08;1787939;79;21053;-80
2022/12/15 09:39:15;;;;;;;126.62;66.17;;;;;;;-6.84;72.95;100545.08;1801046;78;21942;-81
2022/12/15 09:41:42;;;;;;;126.00;65.75;;;;;;;-6.72;72.99;100538.91;1785718;79;21760;-81
2022/12/15 09:44:18;;;;;;;126.25;66.02;;;;;;;-6.62;72.89;100544.47;1784318;79;21042;-81
2022/12/15 09:47:11;;;;;;;140.82;70.28;;;;;;;-6.54;72.88;100543.86;1789847;79;21043;-81
2022/12/15 09:49:57;;;;;;;133.63;70.80;;;;;;;-6.49;72.79;100535.83;1786839;79;21048;-88
2022/12/15 09:52:50;;;;;;;130.72;67.82;;;;;;;-6.40;72.88;100546.36;1784210;79;21012;-81
2022/12/15 09:55:26;;;;;;;133.90;67.97;;;;;;;-6.31;72.97;100543.33;1788429;78;21882;-80
2022/12/15 09:58:33;;;;;;;125.30;68.50;;;;;;;-6.22;72.98;100543.25;1787833;78;21066;-80
2022/12/15 10:01:05;;;;;;;133.57;68.83;;;;;;;-6.16;73.10;100540.83;1788549;78;21031;-80
2022/12/15 10:03:42;;;;;;;132.32;66.55;;;;;;;-6.05;73.13;100543.05;1797357;78;20984;-87
2022/12/15 10:06:16;;;;;;;129.93;66.37;;;;;;;-5.92;73.35;100541.15;1791741;80;21003;-89
2022/12/15 10:08:50;;;;;;;132.67;68.75;;;;;;;-5.85;73.32;100539.64;1798349;78;22665;-90
2022/12/15 10:11:39;;;;;;;127.05;68.00;;;;;;;-5.78;73.27;100541.05;1800078;78;20983;-82
2022/12/15 10:14:45;;;;;;;130.63;66.72;;;;;;;-5.71;73.14;100539.53;1799454;78;20956;-82
2022/12/15 10:17:23;;;;;;;133.90;70.30;;;;;;;-5.70;73.00;100542.23;1797824;78;21100;-90
2022/12/15 10:19:58;;;;;;;129.45;64.82;;;;;;;-5.64;73.00;100531.60;1797451;78;22333;-82
2022/12/15 10:22:28;;;;;;;124.70;64.03;;;;;;;-5.57;73.09;100528.80;1790709;80;21741;-89
2022/12/15 10:24:55;;;;;;;117.65;64.12;;;;;;;-5.50;73.10;100528.56;1790944;80;21063;-89
2022/12/15 10:27:53;;;;;;;121.65;64.77;;;;;;;-5.46;73.02;100525.88;1795628;78;22058;-90
2022/12/15 10:30:20;;;;;;;119.87;65.12;;;;;;;-5.43;73.03;100528.67;1797869;78;21108;-90
2022/12/15 10:33:13;;;;;;;123.78;67.40;;;;;;;-5.38;73.03;100520.11;1801341;78;21061;-89
2022/12/15 10:35:42;;;;;;;143.93;73.85;;;;;;;-5.33;73.12;100518.80;1788380;80;22597;-82
2022/12/15 10:38:22;;;;;;;138.00;71.80;;;;;;;-5.27;73.10;100506.12;1789489;78;21217;-82
2022/12/15 10:40:56;;;;;;;132.80;70.83;;;;;;;-5.19;73.18;100515.73;1764012;78;21129;-81
2022/12/15 10:43:35;;;;;;;;;;;;;;;-5.12;73.24;100510.34;1785368;80;21063;-88
2022/12/15 10:46:18;;;;;;;120.28;65.00;;;;;;;-5.06;73.24;100508.67;1800462;78;20531;-81
2022/12/15 10:48:49;;;;;;;120.65;66.57;;;;;;;-5.00;73.20;100514.70;1797683;78;21962;-89
2022/12/15 10:51:31;;;;;;;129.50;69.12;;;;;;;-4.97;73.22;100517.14;1796066;78;22001;-88
2022/12/15 10:54:09;;;;;;;145.22;71.77;;;;;;;-4.93;73.24;100517.89;1794258;78;21045;-88
2022/12/15 10:56:50;;;;;;;132.30;67.92;;;;;;;-4.87;73.22;100516.61;1788258;79;21026;-81
2022/12/15 10:59:30;;;;;;;128.18;67.67;;;;;;;-4.81;73.24;100523.13;1753104;80;21423;-81
2022/12/15 11:02:19;;;;;;;139.43;68.33;;;;;;;-4.76;73.27;100524.81;1741748;82;21771;-89
2022/12/15 11:05:14;;;;;;;145.22;70.78;;;;;;;-4.72;73.29;100520.03;1751957;81;21516;-81
2022/12/15 11:07:45;;;;;;;135.68;66.50;;;;;;;-4.63;73.32;100519.91;1744702;81;21053;-88
2022/12/15 11:12:50;;;;;;;131.80;67.32;;;;;;;-4.57;73.35;100505.37;1724794;82;21111;-88
2022/12/15 11:13:18;;;;;;;129.15;64.20;;;;;;;-4.53;73.33;100512.16;1723212;83;21766;-88
2022/12/15 11:15:55;;;;;;;130.03;64.07;;;;;;;-4.48;73.26;100515.11;1724124;81;22464;-81
2022/12/15 11:18:47;;;;;;;128.20;67.82;;;;;;;-4.43;73.24;100516.75;1735810;81;21026;-81
2022/12/15 11:21:21;;;;;;;130.10;65.30;;;;;;;-4.39;73.18;100510.72;1734715;81;21022;-81
2022/12/15 11:24:11;;;;;;;131.90;67.32;;;;;;;-4.35;73.14;100517.89;1729549;81;21193;-81
2022/12/15 11:26:44;;;;;;;139.45;69.47;;;;;;;-4.32;73.10;100521.08;1733216;81;20987;-81
2022/12/15 11:29:38;;;;;;;105.85;53.95;;;;;;;-4.32;72.99;100519.80;1733012;81;21737;-81
2022/12/15 11:32:05;;;;;;;140.90;69.37;;;;;;;-4.29;73.00;100526.48;1726814;82;20996;-81
2022/12/15 11:34:44;;;;;;;143.52;73.92;;;;;;;-4.22;73.07;100531.70;1728846;81;21584;-81
2022/12/15 11:37:26;;;;;;;135.95;71.95;;;;;;;-4.20;73.00;100525.05;1735910;81;21006;-81
2022/12/15 11:40:21;;;;;;;142.90;72.00;;;;;;;-4.17;73.00;100526.55;1724968;83;21019;-80
2022/12/15 11:42:53;;;;;;;129.57;66.53;;;;;;;-4.12;73.00;100531.28;1737784;81;21712;-88
2022/12/15 11:45:25;;;;;;;125.60;65.72;;;;;;;-4.03;72.97;100535.37;1739775;81;21071;-88
2022/12/15 11:48:16;;;;;;;120.72;61.98;;;;;;;-4.02;72.87;100536.76;1730057;81;21081;-88
2022/12/15 11:51:04;;;;;;;121.20;62.38;;;;;;;-4.00;72.75;100541.63;1726258;81;21086;-89
2022/12/15 11:54:12;;;;;;;124.20;61.83;;;;;;;-3.96;72.66;100542.41;1725680;82;21062;-89
2022/12/15 11:56:47;;;;;;;132.82;68.55;;;;;;;-3.92;72.60;100537.12;1727170;83;21835;-88
2022/12/15 11:59:56;;;;;;;144.57;73.92;;;;;;;-3.92;72.36;100542.27;1738430;81;22044;-88
2022/12/15 12:02:31;;;;;;;141.68;72.97;;;;;;;-3.93;72.32;100545.60;1733557;81;21139;-81
2022/12/15 12:05:38;;;;;;;143.25;72.97;;;;;;;-3.95;72.18;100548.05;1726055;81;21102;-88
2022/12/15 12:08:34;;;;;;;143.80;72.92;;;;;;;-3.95;72.20;100558.33;1731685;81;22053;-88
2022/12/15 12:11:15;;;;;;;153.95;75.10;;;;;;;-3.95;72.14;100554.87;1732805;81;21765;-87
2022/12/15 12:13:50;;;;;;;151.50;76.87;;;;;;;-3.98;72.00;100568.75;1736366;81;21057;-88
2022/12/15 12:16:54;;;;;;;158.40;78.60;;;;;;;-4.04;71.85;100573.02;1740565;81;21066;-88
2022/12/15 12:19:31;;;;;;;156.40;77.75;;;;;;;-4.07;71.88;100570.23;1675889;81;21355;-81
2022/12/15 12:22:03;;;;;;;159.90;79.35;;;;;;;-4.13;71.72;100565.85;1731271;81;21498;-87
2022/12/15 12:24:45;;;;;;;152.90;71.75;;;;;;;-4.20;71.73;100573.48;1747305;81;21771;-81
2022/12/15 12:27:29;;;;;;;157.00;77.00;;;;;;;-4.17;71.89;100571.13;1726264;83;21050;-80
2022/12/15 12:30:00;;;;;;;146.65;72.27;;;;;;;-4.15;71.88;100572.19;1732733;81;21069;-88
2022/12/15 12:32:36;;;;;;;140.40;67.87;;;;;;;-4.11;71.95;100575.87;1726882;83;21146;-88
2022/12/15 12:35:31;;;;;;;138.30;67.25;;;;;;;-4.07;71.94;100579.22;1731354;82;21076;-88
2022/12/15 12:38:01;;;;;;;142.20;70.47;;;;;;;-4.04;71.79;100584.98;1749833;81;21781;-88
2022/12/15 12:41:05;;;;;;;144.17;70.67;;;;;;;-4.03;71.72;100589.37;1739043;81;21050;-88
2022/12/15 12:43:36;;;;;;;141.45;70.52;;;;;;;-4.03;71.61;100591.94;1727371;81;21067;-88
2022/12/15 12:46:11;;;;;;;149.10;73.85;;;;;;;-4.07;71.46;100581.80;1730605;81;21042;-80
2022/12/15 12:48:51;;;;;;;145.57;71.02;;;;;;;-4.12;71.40;100581.80;1730862;81;21083;-89
2022/12/15 12:51:29;;;;;;;147.45;73.00;;;;;;;-4.17;71.30;100580.52;1735454;81;21897;-87
2022/12/15 12:53:57;;;;;;;146.62;73.87;;;;;;;-4.22;71.22;100584.02;1741512;81;21050;-88
2022/12/15 12:56:43;;;;;;;145.70;74.25;;;;;;;-4.25;71.25;100584.16;1725601;81;21688;-90
2022/12/15 12:59:35;;;;;;;148.45;76.77;;;;;;;-4.28;71.22;100586.08;1728403;81;21060;-88
2022/12/15 13:02:28;;;;;;;138.90;72.05;;;;;;;-4.31;71.26;100595.73;1745114;81;21391;-89
2022/12/15 13:05:03;;;;;;;152.93;74.63;;;;;;;-4.33;71.21;100598.56;1751169;81;22591;-89
2022/12/15 13:07:39;;;;;;;155.03;79.03;;;;;;;-4.37;71.17;100603.34;1750323;81;21066;-89
2022/12/15 13:10:18;;;;;;;175.20;82.55;;;;;;;-4.43;71.13;100604.10;1739577;81;21087;-89
2022/12/15 13:12:52;;;;;;;200.03;87.45;;;;;;;-4.48;71.12;100601.17;1752924;81;22135;-81
2022/12/15 13:15:30;;;;;;;194.93;88.15;;;;;;;-4.53;71.15;100608.48;1753156;81;21620;-80
2022/12/15 13:18:15;;;;;;;175.68;80.77;;;;;;;-4.56;71.13;100603.11;1746766;81;21769;-87
2022/12/15 13:20:55;;;;;;;158.30;77.03;;;;;;;-4.60;71.12;100612.98;1752533;81;21030;-88
2022/12/15 13:23:31;;;;;;;158.00;76.80;;;;;;;-4.65;71.13;100602.34;1759172;81;21058;-87
2022/12/15 13:26:03;;;;;;;178.53;84.87;;;;;;;-4.71;71.10;100603.10;1741438;81;21032;-87
2022/12/15 13:28:43;;;;;;;166.30;78.50;;;;;;;-4.75;71.10;100597.20;1748718;81;21110;-88
2022/12/15 13:31:21;;;;;;;156.05;75.78;;;;;;;-4.79;71.08;100602.47;1753364;81;21807;-88
2022/12/15 13:33:59;;;;;;;143.32;73.20;;;;;;;-4.83;71.09;100596.96;1756197;81;21073;-81
2022/12/15 13:36:47;;;;;;;154.40;77.75;;;;;;;-4.89;71.08;100595.67;1733815;81;21047;-81
2022/12/15 13:39:28;;;;;;;159.32;77.95;;;;;;;-4.93;71.07;100602.61;1737285;81;21052;-81
2022/12/15 13:42:06;;;;;;;147.20;74.90;;;;;;;-5.01;71.05;100607.86;1746752;81;20983;-81
2022/12/15 13:44:50;;;;;;;160.52;77.95;;;;;;;-5.06;71.07;100619.03;1749056;81;21775;-81
2022/12/15 13:47:23;;;;;;;144.65;73.78;;;;;;;-5.09;71.13;100627.38;1752943;81;21378;-81